createdAt,value
2023-10-28T00:00:52.431Z,2.200
2023-10-28T00:01:52.505Z,1.899
2023-10-28T00:02:49.962Z,3.799
2023-10-28T00:03:49.708Z,2.599
2023-10-28T00:04:49.627Z,1.799
2023-10-28T00:05:49.675Z,2
2023-10-28T00:06:50.528Z,2.099
2023-10-28T00:07:50.949Z,3.200
2023-10-28T00:08:50.747Z,2.200
2023-10-28T00:09:50.886Z,2.5
2023-10-28T00:10:52.281Z,2.799
2023-10-28T00:11:50.433Z,2.900
2023-10-28T00:12:49.082Z,1.600
2023-10-28T00:13:49.124Z,3.400
2023-10-28T00:14:50.250Z,3.5
2023-10-28T00:15:51.859Z,2.5
2023-10-28T00:16:51.036Z,3.299
2023-10-28T00:17:51.788Z,3.400
2023-10-28T00:18:51.208Z,2.5
2023-10-28T00:19:51.839Z,2.599
2023-10-28T00:20:49.992Z,2.799
2023-10-28T00:21:50.243Z,2.099
2023-10-28T00:22:50.786Z,3.400
2023-10-28T00:24:51.169Z,2.299
2023-10-28T00:25:51.590Z,4.599
2023-10-28T00:26:51.858Z,2.200
2023-10-28T00:27:51.266Z,2.799
2023-10-28T00:29:50.425Z,4.099
2023-10-28T00:30:50.469Z,2.900
2023-10-28T00:31:50.953Z,2.5
2023-10-28T00:32:50.854Z,2.900
2023-10-28T00:33:50.122Z,2.5
2023-10-28T00:34:50.903Z,2.299
2023-10-28T00:35:51.609Z,2.799
2023-10-28T00:36:51.473Z,1.700
2023-10-28T00:37:52.126Z,2.700
2023-10-28T00:38:52.296Z,1.899
2023-10-28T00:39:50.543Z,2.200
2023-10-28T00:40:50.116Z,2.400
2023-10-28T00:41:51.049Z,2.099
2023-10-28T00:42:50.963Z,1.700
2023-10-28T00:43:51.773Z,2
2023-10-28T00:44:51.048Z,1.799
2023-10-28T00:45:50.671Z,2.400
2023-10-28T00:46:49.701Z,3.099
2023-10-28T00:47:51.221Z,3.299
2023-10-28T00:48:50.698Z,3.700
2023-10-28T00:49:49.171Z,4
2023-10-28T00:50:50.816Z,2.400
2023-10-28T00:51:50.653Z,3
2023-10-28T00:52:51.399Z,1.899
2023-10-28T00:53:52.231Z,3.299
2023-10-28T00:54:51.068Z,4.300
2023-10-28T00:55:51.508Z,3.799
2023-10-28T00:56:50.301Z,2.799
2023-10-28T00:57:51.498Z,2.599
2023-10-28T00:59:51.947Z,3.5
2023-10-28T01:00:52.122Z,2.5
2023-10-28T01:01:51.075Z,2.400
2023-10-28T01:02:49.513Z,2.5
2023-10-28T01:03:50.197Z,3.700
2023-10-28T01:04:48.991Z,2.900
2023-10-28T01:05:50.363Z,4.199
2023-10-28T01:06:51.641Z,3.599
2023-10-28T01:07:52.087Z,3.099
2023-10-28T01:08:52.354Z,2.599
2023-10-28T01:09:51.720Z,3
2023-10-28T01:10:51.023Z,3.799
2023-10-28T01:11:50.989Z,2.299
2023-10-28T01:12:51.452Z,2.400
2023-10-28T01:13:50.379Z,2.700
2023-10-28T01:14:51.048Z,2.5
2023-10-28T01:15:50.185Z,3.599
2023-10-28T01:16:51.081Z,2.799
2023-10-28T01:17:50.620Z,3.5
2023-10-28T01:18:50.902Z,2.099
2023-10-28T01:19:52.072Z,2.5
2023-10-28T01:21:49.261Z,2.900
2023-10-28T01:22:49.914Z,2.599
2023-10-28T01:23:51.748Z,2
2023-10-28T01:24:51.726Z,1.399
2023-10-28T01:25:52.095Z,1.799
2023-10-28T01:26:52.148Z,2.299
2023-10-28T01:27:51.763Z,1.700
2023-10-28T01:28:50.280Z,2
2023-10-28T01:29:49.788Z,1.799
2023-10-28T01:30:50.491Z,3.200
2023-10-28T01:31:51.324Z,1.600
2023-10-28T01:32:52.134Z,3.099
2023-10-28T01:33:51.482Z,1.700
2023-10-28T01:34:51.802Z,2.200
2023-10-28T01:35:51.310Z,1.799
2023-10-28T01:36:51.684Z,1.399
2023-10-28T01:37:50.991Z,1.5
2023-10-28T01:39:52.078Z,0.899
2023-10-28T01:40:52.845Z,1.799
2023-10-28T01:41:52.523Z,2.700
2023-10-28T01:42:52.046Z,2.400
2023-10-28T01:43:52.028Z,1.299
2023-10-28T01:44:51.395Z,1.600
2023-10-28T01:45:52.616Z,1.299
2023-10-28T01:46:51.183Z,1.799
2023-10-28T01:47:50.415Z,1
2023-10-28T01:48:51.192Z,2.099
2023-10-28T01:49:51.235Z,1.5
2023-10-28T01:50:51.255Z,1.399
2023-10-28T01:51:51.677Z,0.899
2023-10-28T01:52:51.793Z,2.099
2023-10-28T01:53:52.056Z,1.399
2023-10-28T01:54:51.303Z,1.600
2023-10-28T01:55:51.833Z,2
2023-10-28T01:56:51.818Z,1.700
2023-10-28T01:57:52.190Z,1.399
2023-10-28T01:58:50.419Z,1.899
2023-10-28T01:59:50.510Z,1.100
2023-10-28T02:00:52.608Z,1.700
2023-10-28T02:01:52.020Z,1.100
2023-10-28T02:02:50.880Z,1.600
2023-10-28T02:03:51.797Z,2.099
2023-10-28T02:04:49.706Z,1.600
2023-10-28T02:05:49.754Z,1.399
2023-10-28T02:06:51.222Z,2.200
2023-10-28T02:07:49.681Z,1.600
2023-10-28T02:08:51.354Z,1.299
2023-10-28T02:09:51.325Z,1.700
2023-10-28T02:10:52.815Z,0.699
2023-10-28T02:11:51.832Z,2
2023-10-28T02:12:51.501Z,1.100
2023-10-28T02:13:52.207Z,1.600
2023-10-28T02:14:52.025Z,1.299
2023-10-28T02:15:50.274Z,0.800
2023-10-28T02:16:51.494Z,1.299
2023-10-28T02:17:51.490Z,1
2023-10-28T02:18:51.196Z,1.399
2023-10-28T02:19:51.214Z,1.5
2023-10-28T02:20:50.937Z,0.300
2023-10-28T02:21:59.180Z,0.800
2023-10-28T02:22:50.789Z,1.399
2023-10-28T02:23:50.712Z,1.5
2023-10-28T02:24:52.466Z,0.600
2023-10-28T02:25:53.152Z,1.399
2023-10-28T02:26:51.955Z,0.899
2023-10-28T02:27:52.888Z,1.200
2023-10-28T02:28:52.623Z,0.899
2023-10-28T02:29:51.675Z,1.5
2023-10-28T02:30:51.979Z,2.400
2023-10-28T02:31:52.291Z,1.799
2023-10-28T02:32:51.763Z,1.200
2023-10-28T02:33:50.886Z,1.100
2023-10-28T02:34:51.866Z,1.600
2023-10-28T02:35:52.928Z,1
2023-10-28T02:36:51.332Z,0.5
2023-10-28T02:37:51.608Z,1.799
2023-10-28T02:38:51.793Z,1
2023-10-28T02:39:51.882Z,0.5
2023-10-28T02:40:52.184Z,1
2023-10-28T02:41:52.166Z,1.299
2023-10-28T02:42:51.602Z,0.800
2023-10-28T02:43:51.698Z,0.699
2023-10-28T02:44:51.144Z,0.899
2023-10-28T02:45:51.772Z,1.299
2023-10-28T02:46:51.366Z,0.699
2023-10-28T02:47:51.375Z,1.399
2023-10-28T02:48:52.075Z,0.699
2023-10-28T02:49:51.400Z,0.600
2023-10-28T02:50:52.039Z,0.899
2023-10-28T02:52:51.869Z,0.5
2023-10-28T02:53:52.071Z,1.100
2023-10-28T02:54:50.885Z,1
2023-10-28T02:56:51.490Z,0.800
2023-10-28T02:57:51.759Z,1.5
2023-10-28T02:58:52.568Z,2
2023-10-28T02:59:51.520Z,1.700
2023-10-28T03:00:52.304Z,1.100
2023-10-28T03:01:51.677Z,1.299
2023-10-28T03:02:52.340Z,1.200
2023-10-28T03:03:51.510Z,1.100
2023-10-28T03:05:51.289Z,1.200
2023-10-28T03:06:50.527Z,2.700
2023-10-28T03:07:51.899Z,2.099
2023-10-28T03:08:50.941Z,1.200
2023-10-28T03:09:52.611Z,1.299
2023-10-28T03:10:51.478Z,2.200
2023-10-28T03:11:51.891Z,1.799
2023-10-28T03:12:51.980Z,1.100
2023-10-28T03:13:51.215Z,1.200
2023-10-28T03:14:51.801Z,1.299
2023-10-28T03:15:53.205Z,2.299
2023-10-28T03:16:53.394Z,1.799
2023-10-28T03:17:53.356Z,2.700
2023-10-28T03:18:52.923Z,1.799
2023-10-28T03:19:52.484Z,1.5
2023-10-28T03:20:53.236Z,4
2023-10-28T03:21:54.401Z,2.099
2023-10-28T03:22:53.269Z,1.200
2023-10-28T03:23:52.396Z,2
2023-10-28T03:25:49.974Z,3.599
2023-10-28T03:26:51.544Z,1.899
2023-10-28T03:27:51.686Z,3
2023-10-28T03:28:51.857Z,1.799
2023-10-28T03:29:51.167Z,3
2023-10-28T03:30:50.312Z,2.700
2023-10-28T03:31:51.267Z,1.399
2023-10-28T03:32:49.437Z,1.700
2023-10-28T03:33:50.309Z,2
2023-10-28T03:34:52.071Z,2.299
2023-10-28T03:35:50.137Z,1.700
2023-10-28T03:36:51.112Z,2.200
2023-10-28T03:37:51.880Z,1.700
2023-10-28T03:38:50.375Z,1.899
2023-10-28T03:39:50.917Z,1.299
2023-10-28T03:40:52.450Z,2.299
2023-10-28T03:41:50.859Z,1.799
2023-10-28T03:43:51.556Z,1.700
2023-10-28T03:44:51.001Z,1.899
2023-10-28T03:45:52.297Z,3
2023-10-28T03:46:52.253Z,1.399
2023-10-28T03:47:51.895Z,2.599
2023-10-28T03:48:52.060Z,1.600
2023-10-28T03:49:52.662Z,2.900
2023-10-28T03:50:50.542Z,1.200
2023-10-28T03:52:51.408Z,1.799
2023-10-28T03:54:50.784Z,1.200
2023-10-28T03:55:51.037Z,0.899
2023-10-28T03:56:50.633Z,2
2023-10-28T03:57:52.672Z,2.5
2023-10-28T03:58:51.568Z,3
2023-10-28T03:59:52.533Z,3.5
2023-10-28T04:00:52.232Z,1.600
2023-10-28T04:01:50.102Z,1.5
2023-10-28T04:02:51.773Z,2.299
2023-10-28T04:03:51.657Z,2.400
2023-10-28T04:04:50.983Z,2.099
2023-10-28T04:05:52.442Z,2.599
2023-10-28T04:06:50.869Z,2.900
2023-10-28T04:07:51.753Z,0.899
2023-10-28T04:08:51.411Z,2
2023-10-28T04:09:52.683Z,2.099
2023-10-28T04:10:52.535Z,1.700
2023-10-28T04:11:50.672Z,2.900
2023-10-28T04:12:51.132Z,2.200
2023-10-28T04:13:52.633Z,1.899
2023-10-28T04:14:50.928Z,1.399
2023-10-28T04:15:52.245Z,2.099
2023-10-28T04:17:51.564Z,1.799
2023-10-28T04:18:50.791Z,2.099
2023-10-28T04:19:52.019Z,1.600
2023-10-28T04:20:50.054Z,1.799
2023-10-28T04:21:52.252Z,1.899
2023-10-28T04:22:51.449Z,2.5
2023-10-28T04:23:52.010Z,1.799
2023-10-28T04:24:52.017Z,1.299
2023-10-28T04:26:52.863Z,2.200
2023-10-28T04:27:53.076Z,2.5
2023-10-28T04:28:51.939Z,2.299
2023-10-28T04:29:50.804Z,2.099
2023-10-28T04:30:52.140Z,1.700
2023-10-28T04:31:53.076Z,2
2023-10-28T04:32:53.255Z,3.200
2023-10-28T04:33:51.183Z,2.299
2023-10-28T04:36:51.145Z,2.099
2023-10-28T04:37:50.540Z,2.799
2023-10-28T04:38:51.130Z,2.900
2023-10-28T04:39:51.608Z,2.099
2023-10-28T04:40:51.994Z,3.299
2023-10-28T04:41:50.242Z,1.600
2023-10-28T04:42:50.587Z,2.400
2023-10-28T04:43:51.504Z,2.099
2023-10-28T04:44:51.866Z,2
2023-10-28T04:45:52.109Z,2.200
2023-10-28T04:46:51.574Z,2
2023-10-28T04:47:53.055Z,1.899
2023-10-28T04:48:51.056Z,2.700
2023-10-28T04:49:50.936Z,2.5
2023-10-28T04:50:52.049Z,1.700
2023-10-28T04:51:51.540Z,0.800
2023-10-28T04:52:52.511Z,1.5
2023-10-28T04:53:51.501Z,1.399
2023-10-28T04:54:52.408Z,2.099
2023-10-28T04:56:52.424Z,1.600
2023-10-28T04:57:51.452Z,1.399
2023-10-28T04:58:52.021Z,0.800
2023-10-28T04:59:50.382Z,1.399
2023-10-28T05:00:52.235Z,1.299
2023-10-28T05:01:51.504Z,2.200
2023-10-28T05:02:50.897Z,2.799
2023-10-28T05:03:49.945Z,2.400
2023-10-28T05:04:51.230Z,1.799
2023-10-28T05:05:51.923Z,1.299
2023-10-28T05:07:49.631Z,4
2023-10-28T05:08:47.694Z,1.899
2023-10-28T05:09:49.126Z,2.200
2023-10-28T05:10:50.263Z,2.400
2023-10-28T05:11:50.741Z,1.399
2023-10-28T05:12:50.704Z,2
2023-10-28T05:13:51.557Z,1
2023-10-28T05:14:51.896Z,2.599
2023-10-28T05:15:52.372Z,1.600
2023-10-28T05:16:51.256Z,1.100
2023-10-28T05:17:51.644Z,1.399
2023-10-28T05:18:51.498Z,2.599
2023-10-28T05:19:50.954Z,1.600
2023-10-28T05:20:50.057Z,1.299
2023-10-28T05:21:51.064Z,2.5
2023-10-28T05:22:51.672Z,1.600
2023-10-28T05:23:51.135Z,1.100
2023-10-28T05:24:52.123Z,1
2023-10-28T05:25:50.884Z,1.899
2023-10-28T05:26:52.827Z,1.200
2023-10-28T05:27:52.286Z,1.299
2023-10-28T05:28:51.899Z,2.599
2023-10-28T05:29:51.903Z,4
2023-10-28T05:30:51.117Z,1
2023-10-28T05:31:51.141Z,1.200
2023-10-28T05:32:51.538Z,0.800
2023-10-28T05:33:51.346Z,2
2023-10-28T05:34:51.912Z,1.299
2023-10-28T05:35:50.330Z,1.600
2023-10-28T05:37:51.832Z,0.899
2023-10-28T05:38:51.656Z,1.5
2023-10-28T05:39:51.510Z,2.599
2023-10-28T05:40:51.794Z,0.899
2023-10-28T05:41:50.980Z,1.200
2023-10-28T05:42:51.990Z,1.799
2023-10-28T05:43:49.750Z,0.899
2023-10-28T05:44:51.098Z,1
2023-10-28T05:45:52.316Z,1.299
2023-10-28T05:46:50.746Z,0.699
2023-10-28T05:47:51.790Z,3
2023-10-28T05:48:51.248Z,0.899
2023-10-28T05:49:51.701Z,2.299
2023-10-28T05:50:51.508Z,1.200
2023-10-28T05:51:49.789Z,0.600
2023-10-28T05:52:48.713Z,1.100
2023-10-28T05:53:50.429Z,1
2023-10-28T05:55:51.900Z,1.299
2023-10-28T05:56:51.204Z,0.899
2023-10-28T05:57:51.501Z,1.100
2023-10-28T05:58:49.819Z,0.600
2023-10-28T05:59:50.831Z,1.399
2023-10-28T06:00:50.672Z,1
2023-10-28T06:01:51.676Z,1.200
2023-10-28T06:02:52.029Z,1.700
2023-10-28T06:03:51.772Z,0.699
2023-10-28T06:04:51.006Z,1
2023-10-28T06:05:49.366Z,0.899
2023-10-28T06:06:50.236Z,1.5
2023-10-28T06:07:51.953Z,0.699
2023-10-28T06:08:51.741Z,0.600
2023-10-28T06:09:51.632Z,1
2023-10-28T06:11:51.734Z,1.600
2023-10-28T06:12:51.795Z,1.399
2023-10-28T06:13:51.474Z,1.600
2023-10-28T06:14:50.745Z,0.699
2023-10-28T06:15:51.198Z,1.100
2023-10-28T06:16:50.414Z,1.399
2023-10-28T06:18:51.255Z,0.200
2023-10-28T06:19:51.808Z,0.600
2023-10-28T06:20:51.588Z,1
2023-10-28T06:21:50.340Z,0.699
2023-10-28T06:22:51.352Z,1.100
2023-10-28T06:23:49.985Z,0.800
2023-10-28T06:24:49.875Z,1
2023-10-28T06:25:52.068Z,1.600
2023-10-28T06:26:52.009Z,0.600
2023-10-28T06:27:52.360Z,0.400
2023-10-28T06:28:51.726Z,0.600
2023-10-28T06:29:51.309Z,1.100
2023-10-28T06:30:51.725Z,0.600
2023-10-28T06:31:52.154Z,1.600
2023-10-28T06:32:51.801Z,0.600
2023-10-28T06:33:49.991Z,1.799
2023-10-28T06:34:51.043Z,1.299
2023-10-28T06:35:50.587Z,2
2023-10-28T06:36:51.098Z,1.100
2023-10-28T06:37:52.209Z,0.699
2023-10-28T06:38:50.355Z,0.5
2023-10-28T06:39:52.666Z,2
2023-10-28T06:40:51.343Z,0.899
2023-10-28T06:41:51.693Z,0.5
2023-10-28T06:42:52.683Z,1.5
2023-10-28T06:43:52.028Z,1.899
2023-10-28T06:44:50.711Z,1.200
2023-10-28T06:45:50.499Z,0.699
2023-10-28T06:46:51.739Z,1.399
2023-10-28T06:47:49.877Z,1.200
2023-10-28T06:48:50.799Z,0.699
2023-10-28T06:49:51.485Z,0.600
2023-10-28T06:50:51.672Z,1.899
2023-10-28T06:51:51.380Z,0.800
2023-10-28T06:52:51.671Z,1.299
2023-10-28T06:53:50.912Z,1.5
2023-10-28T06:54:51.155Z,1.600
2023-10-28T06:56:49.069Z,1.200
2023-10-28T06:57:50.018Z,1.600
2023-10-28T06:58:50.671Z,1.299
2023-10-28T06:59:50.441Z,1.5
2023-10-28T07:00:51.098Z,1.700
2023-10-28T07:02:51.804Z,1.899
2023-10-28T07:03:51.229Z,1.299
2023-10-28T07:04:51.974Z,0.800
2023-10-28T07:05:50.241Z,1.5
2023-10-28T07:06:51.150Z,3.099
2023-10-28T07:07:50.637Z,1.100
2023-10-28T07:08:51.265Z,1.700
2023-10-28T07:09:49.657Z,1.799
2023-10-28T07:10:50.087Z,2.099
2023-10-28T07:11:51.241Z,1.700
2023-10-28T07:12:51.628Z,3.400
2023-10-28T07:13:51.999Z,1.700
2023-10-28T07:14:53.315Z,2.299
2023-10-28T07:15:53.713Z,2.400
2023-10-28T07:16:53.318Z,3.299
2023-10-28T07:17:52.491Z,1.600
2023-10-28T07:18:51.371Z,2.799
2023-10-28T07:19:51.463Z,3.799
2023-10-28T07:20:50.746Z,2.400
2023-10-28T07:21:50.024Z,1.700
2023-10-28T07:22:50.098Z,2.299
2023-10-28T07:23:50.673Z,2.400
2023-10-28T07:24:50.932Z,3.900
2023-10-28T07:25:50.531Z,2.400
2023-10-28T07:26:51.759Z,2.099
2023-10-28T07:27:50.893Z,2.299
2023-10-28T07:28:49.437Z,1.700
2023-10-28T07:29:50.382Z,2.799
2023-10-28T07:30:49.038Z,2.599
2023-10-28T07:31:49.740Z,1.399
2023-10-28T07:32:50.144Z,1.600
2023-10-28T07:33:49.256Z,1.200
2023-10-28T07:34:49.176Z,2.299
2023-10-28T07:35:50.257Z,2.599
2023-10-28T07:36:50.393Z,1.799
2023-10-28T07:37:50.929Z,4.099
2023-10-28T07:38:52.226Z,2
2023-10-28T07:39:51.810Z,3.900
2023-10-28T07:40:51.716Z,2.099
2023-10-28T07:41:52.434Z,1.299
2023-10-28T07:42:51.393Z,1.700
2023-10-28T07:43:52.109Z,2.099
2023-10-28T07:44:51.726Z,3
2023-10-28T07:45:50.677Z,2.799
2023-10-28T07:46:51.438Z,2.200
2023-10-28T07:47:51.583Z,2.099
2023-10-28T07:48:51.731Z,1.700
2023-10-28T07:49:51.615Z,1.600
2023-10-28T07:50:50.846Z,2.099
2023-10-28T07:51:50.546Z,3
2023-10-28T07:52:50.445Z,1.299
2023-10-28T07:53:49.020Z,1.899
2023-10-28T07:54:49.634Z,3
2023-10-28T07:55:50.303Z,2.400
2023-10-28T07:56:50.201Z,2.5
2023-10-28T07:57:51.246Z,2.099
2023-10-28T07:58:51.805Z,1.200
2023-10-28T07:59:51.115Z,2.400
2023-10-28T08:01:50.480Z,2
2023-10-28T08:02:52.261Z,1.799
2023-10-28T08:03:51.711Z,1.200
2023-10-28T08:04:50.434Z,2.299
2023-10-28T08:05:49.685Z,1.799
2023-10-28T08:06:50.918Z,1.600
2023-10-28T08:07:51.519Z,2.099
2023-10-28T08:08:51.781Z,0.899
2023-10-28T08:09:51.677Z,1.5
2023-10-28T08:10:51.468Z,2.700
2023-10-28T08:11:52.018Z,1.5
2023-10-28T08:12:52.375Z,1.299
2023-10-28T08:13:52.607Z,1
2023-10-28T08:14:52.356Z,0.600
2023-10-28T08:15:52.767Z,2.099
2023-10-28T08:16:52.849Z,1.100
2023-10-28T08:17:51.914Z,1.799
2023-10-28T08:18:52.532Z,2.099
2023-10-28T08:19:50.760Z,1.399
2023-10-28T08:20:52.001Z,1.200
2023-10-28T08:21:52.723Z,1.899
2023-10-28T08:22:51.262Z,1.799
2023-10-28T08:23:51.819Z,0.800
2023-10-28T08:24:51.693Z,1
2023-10-28T08:25:51.243Z,1.399
2023-10-28T08:26:51.796Z,1
2023-10-28T08:27:51.941Z,2.599
2023-10-28T08:28:51.516Z,1
2023-10-28T08:29:49.694Z,1.600
2023-10-28T08:30:52.192Z,1.299
2023-10-28T08:31:52.059Z,1.5
2023-10-28T08:32:52.022Z,1.100
2023-10-28T08:33:52.828Z,1.399
2023-10-28T08:34:52.477Z,0.899
2023-10-28T08:35:52.432Z,2.299
2023-10-28T08:36:52.108Z,1
2023-10-28T08:37:51.544Z,1.399
2023-10-28T08:38:50.607Z,0.600
2023-10-28T08:39:51.552Z,2.700
2023-10-28T08:40:51.747Z,1.299
2023-10-28T08:42:50.522Z,2.200
2023-10-28T08:43:50.959Z,1.799
2023-10-28T08:45:51.973Z,1
2023-10-28T08:46:52.034Z,1.200
2023-10-28T08:47:52.184Z,2.200
2023-10-28T08:48:53.650Z,0.899
2023-10-28T08:49:52.947Z,1
2023-10-28T08:50:51.271Z,1.700
2023-10-28T08:51:52.170Z,0.800
2023-10-28T08:52:52.297Z,2.200
2023-10-28T08:53:51.931Z,1.700
2023-10-28T08:54:52.715Z,0.800
2023-10-28T08:55:52.368Z,1.399
2023-10-28T08:56:50.959Z,1.600
2023-10-28T08:58:50.670Z,1.399
2023-10-28T08:59:50.947Z,1.600
2023-10-28T09:00:55.930Z,2
2023-10-28T09:01:54.153Z,1.299
2023-10-28T09:03:52.441Z,0.800
2023-10-28T09:04:51.629Z,1.799
2023-10-28T09:05:52.463Z,1.200
2023-10-28T09:06:51.797Z,2.599
2023-10-28T09:07:51.480Z,1
2023-10-28T09:08:51.227Z,0.800
2023-10-28T09:09:50.500Z,1.600
2023-10-28T09:10:51.328Z,1
2023-10-28T09:11:52.903Z,1.399
2023-10-28T09:12:52.930Z,1.600
2023-10-28T09:13:52.697Z,1.700
2023-10-28T09:14:51.947Z,2
2023-10-28T09:16:50.631Z,2.400
2023-10-28T09:17:49.955Z,1.200
2023-10-28T09:18:52.084Z,1.799
2023-10-28T09:19:52.225Z,2
2023-10-28T09:20:50.835Z,0.899
2023-10-28T09:21:51.272Z,1
2023-10-28T09:22:51.592Z,1.700
2023-10-28T09:24:52.580Z,3.799
2023-10-28T09:25:52.002Z,2
2023-10-28T09:26:51.389Z,2.400
2023-10-28T09:28:51.627Z,2.099
2023-10-28T09:29:52.180Z,1.799
2023-10-28T09:30:52.210Z,2.200
2023-10-28T09:31:50.457Z,2.599
2023-10-28T09:32:48.770Z,2.200
2023-10-28T09:33:49.872Z,2.799
2023-10-28T09:34:51.767Z,2.599
2023-10-28T09:35:52.571Z,3.200
2023-10-28T09:36:51.917Z,2.900
2023-10-28T09:37:51.730Z,1.899
2023-10-28T09:38:52.363Z,3.599
2023-10-28T09:39:51.727Z,2
2023-10-28T09:40:50.835Z,3.099
2023-10-28T09:41:51.942Z,2
2023-10-28T09:42:52.096Z,2.200
2023-10-28T09:43:51.416Z,2.400
2023-10-28T09:44:51.156Z,5.599
2023-10-28T09:45:50.978Z,2.599
2023-10-28T09:46:52.002Z,1.299
2023-10-28T09:47:51.510Z,3.099
2023-10-28T09:48:51.524Z,1.5
2023-10-28T09:49:49.328Z,2.799
2023-10-28T09:50:50.269Z,2.700
2023-10-28T09:51:49.912Z,3.700
2023-10-28T09:52:50.397Z,2.700
2023-10-28T09:53:51.332Z,3.5
2023-10-28T09:54:51.793Z,4.099
2023-10-28T09:55:52.404Z,4.800
2023-10-28T09:56:51.932Z,3.099
2023-10-28T09:58:51.437Z,4.599
2023-10-28T09:59:51.847Z,3.099
2023-10-28T10:00:53.141Z,3.299
2023-10-28T10:01:50.298Z,8.899
2023-10-28T10:02:51.142Z,5.599
2023-10-28T10:03:51.999Z,5.400
2023-10-28T10:04:49.488Z,4.800
2023-10-28T10:05:49.747Z,5.300
2023-10-28T10:06:51.302Z,4.400
2023-10-28T10:07:51.728Z,3.900
2023-10-28T10:08:52.278Z,3.700
2023-10-28T10:09:50.137Z,4.599
2023-10-28T10:10:51.361Z,3.599
2023-10-28T10:11:51.200Z,5.5
2023-10-28T10:12:51.173Z,3.400
2023-10-28T10:13:50.960Z,4.5
2023-10-28T10:14:50.284Z,5.599
2023-10-28T10:15:49.977Z,4.300
2023-10-28T10:16:50.663Z,4.099
2023-10-28T10:17:50.450Z,5.800
2023-10-28T10:18:51.289Z,6.199
2023-10-28T10:19:52.408Z,4.699
2023-10-28T10:20:52.519Z,6.300
2023-10-28T10:21:53.234Z,4.300
2023-10-28T10:22:52.878Z,4.599
2023-10-28T10:23:52.220Z,5.099
2023-10-28T10:24:53.146Z,7.5
2023-10-28T10:25:52.927Z,6.599
2023-10-28T10:26:52.578Z,5.300
2023-10-28T10:27:50.503Z,5
2023-10-28T10:28:51.446Z,5.800
2023-10-28T10:29:50.568Z,5.5
2023-10-28T10:31:50.961Z,6.300
2023-10-28T10:32:50.237Z,4.5
2023-10-28T10:33:50.300Z,4.099
2023-10-28T10:34:50.552Z,4.800
2023-10-28T10:35:51.422Z,7.599
2023-10-28T10:36:49.660Z,4.400
2023-10-28T10:38:50.909Z,5.300
2023-10-28T10:39:51.608Z,6.699
2023-10-28T10:40:52.253Z,3.900
2023-10-28T10:41:52.176Z,4.900
2023-10-28T10:42:51.418Z,6.199
2023-10-28T10:43:51.335Z,6.699
2023-10-28T10:44:52.076Z,5.199
2023-10-28T10:45:52.801Z,5.300
2023-10-28T10:46:52.585Z,5.199
2023-10-28T10:47:51.640Z,4.599
2023-10-28T10:48:50.258Z,5.300
2023-10-28T10:49:51.431Z,4.199
2023-10-28T10:50:51.852Z,4.599
2023-10-28T10:51:52.639Z,6.300
2023-10-28T10:52:50.931Z,6.099
2023-10-28T10:53:51.912Z,4.699
2023-10-28T10:54:50.445Z,7.300
2023-10-28T10:55:50.807Z,7.5
2023-10-28T10:56:51.712Z,5.300
2023-10-28T10:57:51.612Z,6.199
2023-10-28T10:58:51.221Z,6.800
2023-10-28T10:59:51.150Z,7
2023-10-28T11:00:51.920Z,5.900
2023-10-28T11:01:52.571Z,7.5
2023-10-28T11:02:52.903Z,5.5
2023-10-28T11:03:51.454Z,4.900
2023-10-28T11:04:51.749Z,6.099
2023-10-28T11:05:50.686Z,6.199
2023-10-28T11:06:50.489Z,5.300
2023-10-28T11:07:52.247Z,5.5
2023-10-28T11:08:51.816Z,4.800
2023-10-28T11:09:50.192Z,6.5
2023-10-28T11:10:52.209Z,3.700
2023-10-28T11:11:52.012Z,5
2023-10-28T11:12:50.561Z,5.599
2023-10-28T11:13:48.821Z,4.099
2023-10-28T11:14:51.404Z,4
2023-10-28T11:15:51.683Z,2.200
2023-10-28T11:16:51.390Z,5.800
2023-10-28T11:17:51.971Z,5.099
2023-10-28T11:18:49.269Z,4.099
2023-10-28T11:19:51.067Z,3.700
2023-10-28T11:20:52.050Z,4.5
2023-10-28T11:21:52.262Z,3.900
2023-10-28T11:22:52.415Z,5.099
2023-10-28T11:23:52.363Z,3.700
2023-10-28T11:24:52.565Z,3.900
2023-10-28T11:25:52.070Z,4.400
2023-10-28T11:26:51.568Z,3.799
2023-10-28T11:27:51.866Z,3.299
2023-10-28T11:28:50.784Z,3.599
2023-10-28T11:29:51.069Z,4.099
2023-10-28T11:30:51.478Z,2.900
2023-10-28T11:31:51.846Z,3.400
2023-10-28T11:33:51.109Z,3.700
2023-10-28T11:34:50.155Z,3.099
2023-10-28T11:35:51.553Z,3.700
2023-10-28T11:36:49.775Z,4.800
2023-10-28T11:37:51.140Z,4.599
2023-10-28T11:38:51.868Z,4.699
2023-10-28T11:39:51.351Z,5.800
2023-10-28T11:40:51.026Z,4.800
2023-10-28T11:41:51.045Z,4.400
2023-10-28T11:42:51.926Z,3.599
2023-10-28T11:43:52.249Z,3.799
2023-10-28T11:44:51.798Z,6.099
2023-10-28T11:45:51.339Z,4.099
2023-10-28T11:46:50.136Z,3.5
2023-10-28T11:47:51.439Z,3.900
2023-10-28T11:48:51.926Z,6.699
2023-10-28T11:49:51.366Z,3.799
2023-10-28T11:50:49.662Z,4.800
2023-10-28T11:51:50.649Z,4.400
2023-10-28T11:52:49.377Z,4
2023-10-28T11:53:50.788Z,2.799
2023-10-28T11:54:50.282Z,4
2023-10-28T11:55:50.310Z,3.400
2023-10-28T11:56:51.631Z,4.800
2023-10-28T11:57:52.421Z,3.799
2023-10-28T11:58:51.683Z,3.200
2023-10-28T11:59:51.146Z,3.900
2023-10-28T12:00:53.518Z,4.199
2023-10-28T12:01:54.710Z,3.799
2023-10-28T12:02:53.141Z,3.900
2023-10-28T12:03:52.188Z,5.599
2023-10-28T12:04:52.121Z,3
2023-10-28T12:05:52.657Z,3.700
2023-10-28T12:06:52.005Z,3.400
2023-10-28T12:07:51.458Z,5.099
2023-10-28T12:08:49.910Z,3.099
2023-10-28T12:09:50.988Z,3.700
2023-10-28T12:10:49.814Z,4.099
2023-10-28T12:11:49.879Z,2.700
2023-10-28T12:12:50.537Z,2.400
2023-10-28T12:13:51.397Z,4.800
2023-10-28T12:14:50.428Z,3.400
2023-10-28T12:15:50.005Z,3.599
2023-10-28T12:16:50.802Z,2.799
2023-10-28T12:18:51.471Z,2.900
2023-10-28T12:19:50.566Z,2.599
2023-10-28T12:20:51.179Z,2.299
2023-10-28T12:21:51.698Z,4.599
2023-10-28T12:22:52.498Z,2.5
2023-10-28T12:23:52.279Z,2
2023-10-28T12:24:52.466Z,2.799
2023-10-28T12:26:52.862Z,3.5
2023-10-28T12:27:52.385Z,2.799
2023-10-28T12:28:51.797Z,2.5
2023-10-28T12:29:51.297Z,2.200
2023-10-28T12:30:52.408Z,1.899
2023-10-28T12:32:52.327Z,3.099
2023-10-28T12:33:52.115Z,1.600
2023-10-28T12:34:52.694Z,3
2023-10-28T12:35:49.645Z,1.899
2023-10-28T12:36:50.395Z,2.700
2023-10-28T12:37:51.823Z,2.299
2023-10-28T12:38:51.837Z,1.600
2023-10-28T12:39:51.849Z,2.299
2023-10-28T12:41:51.244Z,1.899
2023-10-28T12:42:51.599Z,2.799
2023-10-28T12:43:51.211Z,2.700
2023-10-28T12:44:51.305Z,2.099
2023-10-28T12:45:52.090Z,2.299
2023-10-28T12:46:52.209Z,1.899
2023-10-28T12:47:51.881Z,2
2023-10-28T12:48:51.213Z,2.299
2023-10-28T12:49:51.845Z,1.899
2023-10-28T12:50:52.925Z,2
2023-10-28T12:51:52.273Z,2.200
2023-10-28T12:52:52.549Z,2.099
2023-10-28T12:53:52.849Z,3.299
2023-10-28T12:54:52.847Z,1.899
2023-10-28T12:55:52.307Z,2.700
2023-10-28T12:56:52.063Z,3.200
2023-10-28T12:57:52.671Z,1.600
2023-10-28T12:58:51.424Z,2.200
2023-10-28T13:00:53.251Z,1.600
2023-10-28T13:01:52.835Z,1.5
2023-10-28T13:02:52.826Z,2.099
2023-10-28T13:03:51.875Z,1.399
2023-10-28T13:04:51.013Z,1.899
2023-10-28T13:05:49.420Z,2.299
2023-10-28T13:06:50.150Z,1.5
2023-10-28T13:07:51.513Z,2
2023-10-28T13:08:51.731Z,1.600
2023-10-28T13:09:51.541Z,1.399
2023-10-28T13:10:54.983Z,1.799
2023-10-28T13:11:53.576Z,1.399
2023-10-28T13:12:52.321Z,1.799
2023-10-28T13:13:50.963Z,2.200
2023-10-28T13:14:51.670Z,1.100
2023-10-28T13:15:51.723Z,1
2023-10-28T13:16:53.015Z,1.600
2023-10-28T13:17:52.257Z,2.900
2023-10-28T13:18:50.798Z,2.400
2023-10-28T13:20:50.652Z,1.899
2023-10-28T13:21:49.641Z,1.700
2023-10-28T13:22:53.049Z,1.100
2023-10-28T13:23:51.591Z,1.200
2023-10-28T13:24:51.296Z,1.700
2023-10-28T13:26:50.968Z,1.799
2023-10-28T13:28:52.111Z,2.099
2023-10-28T13:29:51.388Z,1.899
2023-10-28T13:30:52.857Z,1.700
2023-10-28T13:31:52.829Z,1.799
2023-10-28T13:32:56.762Z,2.200
2023-10-28T13:33:54.563Z,1.299
2023-10-28T13:34:53.394Z,1.100
2023-10-28T13:35:53.233Z,1.399
2023-10-28T13:36:52.515Z,0.5
2023-10-28T13:37:51.089Z,1.899
2023-10-28T13:38:50.301Z,1.5
2023-10-28T13:39:50.590Z,0.899
2023-10-28T13:40:52.367Z,1.399
2023-10-28T13:41:52.435Z,0.300
2023-10-28T13:42:52.038Z,0.699
2023-10-28T13:43:52.541Z,0.600
2023-10-28T13:44:53.237Z,1.299
2023-10-28T13:45:52.732Z,1
2023-10-28T13:46:52.629Z,1.799
2023-10-28T13:47:52.799Z,1.100
2023-10-28T13:48:52.381Z,1.899
2023-10-28T13:49:51.352Z,2.200
2023-10-28T13:50:52.562Z,1.100
2023-10-28T13:51:52.370Z,2.099